sensor_id;sensor_type;location;lat;lon;timestamp;P1;durP1;ratioP1;P2;durP2;ratioP2
55013;SDS011;40916;51.632;5.552;2023-03-23T00:03:27;3;;;7.1;;
55013;SDS011;40916;51.632;5.552;2023-03-23T00:08:26;3;;;9.4;;
55013;SDS011;40916;51.632;5.552;2023-03-23T00:13:27;2.9;;;5.2;;
55013;SDS011;40916;51.632;5.552;2023-03-23T00:18:26;3.2;;;8.2;;
55013;SDS011;40916;51.632;5.552;2023-03-23T00:23:26;3.5;;;7.7;;
55013;SDS011;40916;51.632;5.552;2023-03-23T00:28:26;3.4;;;7;;
55013;SDS011;40916;51.632;5.552;2023-03-23T00:33:27;2.8;;;5.1;;
55013;SDS011;40916;51.632;5.552;2023-03-23T00:38:26;3.1;;;5.7;;
55013;SDS011;40916;51.632;5.552;2023-03-23T00:43:26;3;;;7;;
55013;SDS011;40916;51.632;5.552;2023-03-23T00:48:27;3.3;;;7.4;;
55013;SDS011;40916;51.632;5.552;2023-03-23T00:53:26;3.2;;;7.4;;
55013;SDS011;40916;51.632;5.552;2023-03-23T00:58:26;3.2;;;8;;
55013;SDS011;40916;51.632;5.552;2023-03-23T01:03:26;3.6;;;11.7;;
55013;SDS011;40916;51.632;5.552;2023-03-23T01:08:26;3;;;7;;
55013;SDS011;40916;51.632;5.552;2023-03-23T01:13:26;3.9;;;8.7;;
55013;SDS011;40916;51.632;5.552;2023-03-23T01:18:26;3.8;;;7.8;;
55013;SDS011;40916;51.632;5.552;2023-03-23T01:23:26;4.1;;;9.4;;
55013;SDS011;40916;51.632;5.552;2023-03-23T01:28:26;3.4;;;5.1;;
55013;SDS011;40916;51.632;5.552;2023-03-23T01:33:26;3.9;;;6.6;;
55013;SDS011;40916;51.632;5.552;2023-03-23T01:38:26;3.3;;;5.3;;
55013;SDS011;40916;51.632;5.552;2023-03-23T01:43:26;3.7;;;8.9;;
55013;SDS011;40916;51.632;5.552;2023-03-23T01:48:27;4.3;;;8.1;;
55013;SDS011;40916;51.632;5.552;2023-03-23T01:53:28;3.3;;;5.6;;
55013;SDS011;40916;51.632;5.552;2023-03-23T01:58:27;3.4;;;6.2;;
55013;SDS011;40916;51.632;5.552;2023-03-23T02:03:26;3.9;;;6.1;;
55013;SDS011;40916;51.632;5.552;2023-03-23T02:08:27;3.3;;;6.2;;
55013;SDS011;40916;51.632;5.552;2023-03-23T02:13:26;3.3;;;5.7;;
55013;SDS011;40916;51.632;5.552;2023-03-23T02:18:29;3.2;;;5.9;;
55013;SDS011;40916;51.632;5.552;2023-03-23T02:23:31;3.7;;;6.7;;
55013;SDS011;40916;51.632;5.552;2023-03-23T02:28:29;3.5;;;7;;
55013;SDS011;40916;51.632;5.552;2023-03-23T02:33:32;3.4;;;6;;
55013;SDS011;40916;51.632;5.552;2023-03-23T02:38:28;2.6;;;4.5;;
55013;SDS011;40916;51.632;5.552;2023-03-23T02:43:28;3.2;;;6.3;;
55013;SDS011;40916;51.632;5.552;2023-03-23T02:48:28;3.3;;;7.5;;
55013;SDS011;40916;51.632;5.552;2023-03-23T02:53:26;3.7;;;6.5;;
55013;SDS011;40916;51.632;5.552;2023-03-23T02:58:26;2.9;;;8.2;;
55013;SDS011;40916;51.632;5.552;2023-03-23T03:03:27;2.8;;;8.6;;
55013;SDS011;40916;51.632;5.552;2023-03-23T03:08:26;1.8;;;5.2;;
55013;SDS011;40916;51.632;5.552;2023-03-23T03:13:30;2.9;;;8.5;;
55013;SDS011;40916;51.632;5.552;2023-03-23T03:18:27;3.8;;;6.5;;
55013;SDS011;40916;51.632;5.552;2023-03-23T03:23:26;1.6;;;4.2;;
55013;SDS011;40916;51.632;5.552;2023-03-23T03:28:26;2.3;;;3.6;;
55013;SDS011;40916;51.632;5.552;2023-03-23T03:33:26;3.4;;;10.1;;
55013;SDS011;40916;51.632;5.552;2023-03-23T03:38:26;2.7;;;7;;
55013;SDS011;40916;51.632;5.552;2023-03-23T03:43:26;3.7;;;7.8;;
55013;SDS011;40916;51.632;5.552;2023-03-23T03:48:26;3.2;;;7.3;;
55013;SDS011;40916;51.632;5.552;2023-03-23T03:53:26;2.5;;;6;;
55013;SDS011;40916;51.632;5.552;2023-03-23T03:58:26;2.8;;;5.1;;
55013;SDS011;40916;51.632;5.552;2023-03-23T04:03:26;1.7;;;13.1;;
55013;SDS011;40916;51.632;5.552;2023-03-23T04:08:26;1.7;;;2.9;;
55013;SDS011;40916;51.632;5.552;2023-03-23T04:13:26;1.9;;;4.8;;
55013;SDS011;40916;51.632;5.552;2023-03-23T04:18:26;2.4;;;5.3;;
55013;SDS011;40916;51.632;5.552;2023-03-23T04:23:27;2;;;4;;
55013;SDS011;40916;51.632;5.552;2023-03-23T04:28:26;2;;;4.5;;
55013;SDS011;40916;51.632;5.552;2023-03-23T04:33:27;1.9;;;4.4;;
55013;SDS011;40916;51.632;5.552;2023-03-23T04:38:26;1.9;;;7.1;;
55013;SDS011;40916;51.632;5.552;2023-03-23T04:43:26;3.3;;;16.9;;
55013;SDS011;40916;51.632;5.552;2023-03-23T04:48:26;1.7;;;5.6;;
55013;SDS011;40916;51.632;5.552;2023-03-23T04:53:26;2.3;;;15.6;;
55013;SDS011;40916;51.632;5.552;2023-03-23T04:58:26;2.1;;;8.1;;
55013;SDS011;40916;51.632;5.552;2023-03-23T05:03:26;1.6;;;10.6;;
55013;SDS011;40916;51.632;5.552;2023-03-23T05:08:26;1.9;;;7;;
55013;SDS011;40916;51.632;5.552;2023-03-23T05:13:26;1.4;;;4.7;;
55013;SDS011;40916;51.632;5.552;2023-03-23T05:18:26;1.5;;;6.5;;
55013;SDS011;40916;51.632;5.552;2023-03-23T05:23:26;1.8;;;8.1;;
55013;SDS011;40916;51.632;5.552;2023-03-23T05:28:26;1.6;;;10;;
55013;SDS011;40916;51.632;5.552;2023-03-23T05:33:26;1.7;;;7.1;;
55013;SDS011;40916;51.632;5.552;2023-03-23T05:38:26;1.5;;;6.5;;
55013;SDS011;40916;51.632;5.552;2023-03-23T05:43:26;2.1;;;8.4;;
55013;SDS011;40916;51.632;5.552;2023-03-23T05:48:26;1;;;3.4;;
55013;SDS011;40916;51.632;5.552;2023-03-23T05:53:26;1.9;;;9;;
55013;SDS011;40916;51.632;5.552;2023-03-23T05:58:26;1.5;;;9.4;;
55013;SDS011;40916;51.632;5.552;2023-03-23T06:03:26;1.2;;;2.9;;
55013;SDS011;40916;51.632;5.552;2023-03-23T06:08:26;1.9;;;10.4;;
55013;SDS011;40916;51.632;5.552;2023-03-23T06:13:26;2.1;;;9.7;;
55013;SDS011;40916;51.632;5.552;2023-03-23T06:18:26;2.1;;;7.8;;
55013;SDS011;40916;51.632;5.552;2023-03-23T06:23:26;1.6;;;9.3;;
55013;SDS011;40916;51.632;5.552;2023-03-23T06:28:26;1.9;;;7;;
55013;SDS011;40916;51.632;5.552;2023-03-23T06:33:26;1.6;;;5.6;;
55013;SDS011;40916;51.632;5.552;2023-03-23T06:38:26;2.1;;;13.6;;
55013;SDS011;40916;51.632;5.552;2023-03-23T06:43:26;2;;;7;;
55013;SDS011;40916;51.632;5.552;2023-03-23T06:48:26;2.4;;;13.4;;
55013;SDS011;40916;51.632;5.552;2023-03-23T06:53:26;1.6;;;7.4;;
55013;SDS011;40916;51.632;5.552;2023-03-23T06:58:26;2;;;10.6;;
55013;SDS011;40916;51.632;5.552;2023-03-23T07:03:26;2.8;;;13;;
55013;SDS011;40916;51.632;5.552;2023-03-23T07:08:26;2.4;;;7.7;;
55013;SDS011;40916;51.632;5.552;2023-03-23T07:13:26;2.1;;;6.3;;
55013;SDS011;40916;51.632;5.552;2023-03-23T07:18:26;2.1;;;7.7;;
55013;SDS011;40916;51.632;5.552;2023-03-23T07:23:26;2.7;;;12;;
55013;SDS011;40916;51.632;5.552;2023-03-23T07:28:26;1.7;;;9.8;;
55013;SDS011;40916;51.632;5.552;2023-03-23T07:33:26;2;;;7.2;;
55013;SDS011;40916;51.632;5.552;2023-03-23T07:38:26;1.5;;;5.1;;
55013;SDS011;40916;51.632;5.552;2023-03-23T07:43:26;1.4;;;4.2;;
55013;SDS011;40916;51.632;5.552;2023-03-23T07:48:26;1.5;;;3.6;;
55013;SDS011;40916;51.632;5.552;2023-03-23T07:53:26;1.3;;;6.7;;
55013;SDS011;40916;51.632;5.552;2023-03-23T07:58:26;0.8;;;4.3;;
55013;SDS011;40916;51.632;5.552;2023-03-23T08:03:26;0.8;;;3.6;;
55013;SDS011;40916;51.632;5.552;2023-03-23T08:08:26;0.9;;;3.1;;
55013;SDS011;40916;51.632;5.552;2023-03-23T08:13:26;1.2;;;2.9;;
55013;SDS011;40916;51.632;5.552;2023-03-23T08:18:26;0.9;;;2.6;;
55013;SDS011;40916;51.632;5.552;2023-03-23T08:23:26;1.6;;;7.7;;
55013;SDS011;40916;51.632;5.552;2023-03-23T08:28:26;1.1;;;2.9;;
55013;SDS011;40916;51.632;5.552;2023-03-23T08:33:26;0.8;;;1.5;;
55013;SDS011;40916;51.632;5.552;2023-03-23T08:38:26;1.2;;;3.6;;
55013;SDS011;40916;51.632;5.552;2023-03-23T08:43:26;1.1;;;5.1;;
55013;SDS011;40916;51.632;5.552;2023-03-23T08:48:26;1.2;;;5.4;;
55013;SDS011;40916;51.632;5.552;2023-03-23T08:53:26;1;;;2.7;;
55013;SDS011;40916;51.632;5.552;2023-03-23T08:58:26;1.2;;;7.1;;
55013;SDS011;40916;51.632;5.552;2023-03-23T09:03:26;1.4;;;5.8;;
55013;SDS011;40916;51.632;5.552;2023-03-23T09:08:26;1.2;;;3.9;;
55013;SDS011;40916;51.632;5.552;2023-03-23T09:13:26;1.2;;;7;;
55013;SDS011;40916;51.632;5.552;2023-03-23T09:18:26;1.3;;;3.8;;
55013;SDS011;40916;51.632;5.552;2023-03-23T09:23:26;1.1;;;4.1;;
55013;SDS011;40916;51.632;5.552;2023-03-23T09:28:26;1.7;;;5.8;;
55013;SDS011;40916;51.632;5.552;2023-03-23T09:33:26;1.8;;;7.2;;
55013;SDS011;40916;51.632;5.552;2023-03-23T09:38:26;1.1;;;6.3;;
55013;SDS011;40916;51.632;5.552;2023-03-23T09:43:34;1;;;3.8;;
55013;SDS011;40916;51.632;5.552;2023-03-23T09:48:30;2;;;10;;
55013;SDS011;40916;51.632;5.552;2023-03-23T09:53:27;1.7;;;5.1;;
55013;SDS011;40916;51.632;5.552;2023-03-23T09:58:27;1.6;;;8;;
55013;SDS011;40916;51.632;5.552;2023-03-23T10:03:26;0.9;;;4.3;;
55013;SDS011;40916;51.632;5.552;2023-03-23T10:08:26;1.4;;;3.8;;
55013;SDS011;40916;51.632;5.552;2023-03-23T10:13:35;1.5;;;5.2;;
55013;SDS011;40916;51.632;5.552;2023-03-23T10:18:27;1.5;;;4.4;;
55013;SDS011;40916;51.632;5.552;2023-03-23T10:23:58;1.7;;;6.5;;
55013;SDS011;40916;51.632;5.552;2023-03-23T10:28:34;1.7;;;4.4;;
55013;SDS011;40916;51.632;5.552;2023-03-23T10:38:27;1.2;;;2.5;;
55013;SDS011;40916;51.632;5.552;2023-03-23T10:43:26;1.6;;;5.7;;
55013;SDS011;40916;51.632;5.552;2023-03-23T10:48:27;1.2;;;4.1;;
55013;SDS011;40916;51.632;5.552;2023-03-23T10:53:26;2.1;;;6.9;;
55013;SDS011;40916;51.632;5.552;2023-03-23T10:58:26;1.9;;;10.8;;
55013;SDS011;40916;51.632;5.552;2023-03-23T11:03:29;2;;;6.5;;
55013;SDS011;40916;51.632;5.552;2023-03-23T11:08:26;1.8;;;4.2;;
55013;SDS011;40916;51.632;5.552;2023-03-23T11:13:27;1.8;;;6.3;;
55013;SDS011;40916;51.632;5.552;2023-03-23T11:18:26;2.2;;;7.4;;
55013;SDS011;40916;51.632;5.552;2023-03-23T11:23:29;1.4;;;3.7;;
55013;SDS011;40916;51.632;5.552;2023-03-23T11:28:31;1.6;;;6.5;;
55013;SDS011;40916;51.632;5.552;2023-03-23T11:33:30;1.2;;;3.4;;
55013;SDS011;40916;51.632;5.552;2023-03-23T11:38:29;1.4;;;3.4;;
55013;SDS011;40916;51.632;5.552;2023-03-23T11:43:30;1.2;;;7.5;;
55013;SDS011;40916;51.632;5.552;2023-03-23T11:48:33;2.1;;;10.5;;
55013;SDS011;40916;51.632;5.552;2023-03-23T11:53:32;1;;;3.9;;
55013;SDS011;40916;51.632;5.552;2023-03-23T11:58:29;2.2;;;6.9;;
55013;SDS011;40916;51.632;5.552;2023-03-23T12:03:35;2.5;;;7.2;;
55013;SDS011;40916;51.632;5.552;2023-03-23T12:08:33;1.7;;;6.3;;
55013;SDS011;40916;51.632;5.552;2023-03-23T12:13:34;1.5;;;4.8;;
55013;SDS011;40916;51.632;5.552;2023-03-23T12:18:32;1.4;;;4;;
55013;SDS011;40916;51.632;5.552;2023-03-23T12:23:31;2.1;;;8.4;;
55013;SDS011;40916;51.632;5.552;2023-03-23T12:28:33;1.9;;;7.6;;
55013;SDS011;40916;51.632;5.552;2023-03-23T12:33:33;1.8;;;6;;
55013;SDS011;40916;51.632;5.552;2023-03-23T12:38:34;2.3;;;7.2;;
55013;SDS011;40916;51.632;5.552;2023-03-23T12:43:31;2.1;;;7.6;;
55013;SDS011;40916;51.632;5.552;2023-03-23T12:48:31;1.8;;;9.7;;
55013;SDS011;40916;51.632;5.552;2023-03-23T12:53:30;1.7;;;5.4;;
55013;SDS011;40916;51.632;5.552;2023-03-23T12:58:30;1.9;;;6.1;;
55013;SDS011;40916;51.632;5.552;2023-03-23T13:03:31;1.7;;;8.8;;
55013;SDS011;40916;51.632;5.552;2023-03-23T13:08:30;1.9;;;5.7;;
55013;SDS011;40916;51.632;5.552;2023-03-23T13:13:39;1.6;;;5.9;;
55013;SDS011;40916;51.632;5.552;2023-03-23T13:18:31;1.2;;;5;;
55013;SDS011;40916;51.632;5.552;2023-03-23T13:23:33;1.7;;;5.6;;
55013;SDS011;40916;51.632;5.552;2023-03-23T13:28:34;1.5;;;8.9;;
55013;SDS011;40916;51.632;5.552;2023-03-23T13:33:35;2;;;9.7;;
55013;SDS011;40916;51.632;5.552;2023-03-23T13:38:34;1.7;;;8.3;;
55013;SDS011;40916;51.632;5.552;2023-03-23T13:43:35;1.3;;;10;;
55013;SDS011;40916;51.632;5.552;2023-03-23T13:48:40;1.3;;;3.5;;
55013;SDS011;40916;51.632;5.552;2023-03-23T13:53:43;2.1;;;15.5;;
55013;SDS011;40916;51.632;5.552;2023-03-23T13:58:43;1.9;;;10;;
55013;SDS011;40916;51.632;5.552;2023-03-23T14:03:35;1;;;2.4;;
55013;SDS011;40916;51.632;5.552;2023-03-23T14:08:36;2.4;;;8.1;;
55013;SDS011;40916;51.632;5.552;2023-03-23T14:13:36;1.7;;;5.9;;
55013;SDS011;40916;51.632;5.552;2023-03-23T14:18:35;2.4;;;7.4;;
55013;SDS011;40916;51.632;5.552;2023-03-23T14:23:34;1.3;;;3.5;;
55013;SDS011;40916;51.632;5.552;2023-03-23T14:28:36;1.8;;;8.6;;
55013;SDS011;40916;51.632;5.552;2023-03-23T14:33:34;2;;;5.6;;
55013;SDS011;40916;51.632;5.552;2023-03-23T14:38:34;2.4;;;7;;
55013;SDS011;40916;51.632;5.552;2023-03-23T14:43:34;2;;;10.3;;
55013;SDS011;40916;51.632;5.552;2023-03-23T14:48:34;2;;;8;;
55013;SDS011;40916;51.632;5.552;2023-03-23T14:53:35;2.1;;;9.3;;
55013;SDS011;40916;51.632;5.552;2023-03-23T14:58:34;2.2;;;9;;
55013;SDS011;40916;51.632;5.552;2023-03-23T15:03:35;2.2;;;9.9;;
55013;SDS011;40916;51.632;5.552;2023-03-23T15:08:34;1.8;;;5;;
55013;SDS011;40916;51.632;5.552;2023-03-23T15:13:35;1.8;;;5.5;;
55013;SDS011;40916;51.632;5.552;2023-03-23T15:18:35;2.2;;;7.4;;
55013;SDS011;40916;51.632;5.552;2023-03-23T15:23:40;1.6;;;7.6;;
55013;SDS011;40916;51.632;5.552;2023-03-23T15:28:39;1.6;;;5.5;;
55013;SDS011;40916;51.632;5.552;2023-03-23T15:33:41;2.3;;;6.8;;
55013;SDS011;40916;51.632;5.552;2023-03-23T15:43:48;1.7;;;6.9;;
55013;SDS011;40916;51.632;5.552;2023-03-23T15:48:45;2.5;;;11;;
55013;SDS011;40916;51.632;5.552;2023-03-23T15:53:44;2.9;;;14.8;;
55013;SDS011;40916;51.632;5.552;2023-03-23T15:58:44;2.7;;;12.9;;
55013;SDS011;40916;51.632;5.552;2023-03-23T16:03:45;2.3;;;13.8;;
55013;SDS011;40916;51.632;5.552;2023-03-23T16:08:44;2.4;;;10.5;;
55013;SDS011;40916;51.632;5.552;2023-03-23T16:13:45;2.9;;;13.5;;
55013;SDS011;40916;51.632;5.552;2023-03-23T16:18:44;2.6;;;10.7;;
55013;SDS011;40916;51.632;5.552;2023-03-23T16:23:44;2;;;8.7;;
55013;SDS011;40916;51.632;5.552;2023-03-23T16:28:44;2.2;;;6.5;;
55013;SDS011;40916;51.632;5.552;2023-03-23T16:33:44;2.4;;;8.6;;
55013;SDS011;40916;51.632;5.552;2023-03-23T16:38:44;2.4;;;10.2;;
55013;SDS011;40916;51.632;5.552;2023-03-23T16:43:44;2.5;;;9.5;;
55013;SDS011;40916;51.632;5.552;2023-03-23T16:48:44;2.3;;;11.1;;
55013;SDS011;40916;51.632;5.552;2023-03-23T16:53:44;2.6;;;13.8;;
55013;SDS011;40916;51.632;5.552;2023-03-23T16:58:44;3;;;11.9;;
55013;SDS011;40916;51.632;5.552;2023-03-23T17:03:44;2.7;;;8.7;;
55013;SDS011;40916;51.632;5.552;2023-03-23T17:08:44;2.9;;;13.5;;
55013;SDS011;40916;51.632;5.552;2023-03-23T17:13:44;2.3;;;7.1;;
55013;SDS011;40916;51.632;5.552;2023-03-23T17:18:44;3.6;;;9.9;;
55013;SDS011;40916;51.632;5.552;2023-03-23T17:23:46;3.5;;;12.3;;
55013;SDS011;40916;51.632;5.552;2023-03-23T17:28:46;3.4;;;9.3;;
55013;SDS011;40916;51.632;5.552;2023-03-23T17:33:46;3.2;;;11.4;;
55013;SDS011;40916;51.632;5.552;2023-03-23T17:38:46;3.3;;;13.2;;
55013;SDS011;40916;51.632;5.552;2023-03-23T17:43:46;5.4;;;10.6;;
55013;SDS011;40916;51.632;5.552;2023-03-23T17:48:46;5.4;;;23;;
55013;SDS011;40916;51.632;5.552;2023-03-23T17:53:46;3.6;;;11.1;;
55013;SDS011;40916;51.632;5.552;2023-03-23T17:58:46;4;;;15.2;;
55013;SDS011;40916;51.632;5.552;2023-03-23T18:03:46;4.1;;;14.5;;
55013;SDS011;40916;51.632;5.552;2023-03-23T18:08:46;3.9;;;16.9;;
55013;SDS011;40916;51.632;5.552;2023-03-23T18:13:46;3.6;;;11.8;;
55013;SDS011;40916;51.632;5.552;2023-03-23T18:18:46;3.7;;;12;;
55013;SDS011;40916;51.632;5.552;2023-03-23T18:23:48;3.7;;;11.8;;
55013;SDS011;40916;51.632;5.552;2023-03-23T18:28:51;3.4;;;9.5;;
55013;SDS011;40916;51.632;5.552;2023-03-23T18:33:52;3.1;;;10.4;;
55013;SDS011;40916;51.632;5.552;2023-03-23T18:38:53;2.8;;;11.2;;
55013;SDS011;40916;51.632;5.552;2023-03-23T18:43:52;3.2;;;11.7;;
55013;SDS011;40916;51.632;5.552;2023-03-23T18:48:52;3;;;11.2;;
55013;SDS011;40916;51.632;5.552;2023-03-23T18:53:52;3.4;;;12;;
55013;SDS011;40916;51.632;5.552;2023-03-23T18:58:52;2.8;;;9.8;;
55013;SDS011;40916;51.632;5.552;2023-03-23T19:03:52;9.5;;;20.5;;
55013;SDS011;40916;51.632;5.552;2023-03-23T19:08:52;3.9;;;11.6;;
55013;SDS011;40916;51.632;5.552;2023-03-23T19:13:52;3.4;;;15.9;;
55013;SDS011;40916;51.632;5.552;2023-03-23T19:18:52;2.8;;;7.4;;
55013;SDS011;40916;51.632;5.552;2023-03-23T19:23:54;2.8;;;5.9;;
55013;SDS011;40916;51.632;5.552;2023-03-23T19:28:56;2.8;;;10.7;;
55013;SDS011;40916;51.632;5.552;2023-03-23T19:33:56;2.9;;;8.7;;
55013;SDS011;40916;51.632;5.552;2023-03-23T19:38:56;2.9;;;11.4;;
55013;SDS011;40916;51.632;5.552;2023-03-23T19:43:56;2.9;;;9.6;;
55013;SDS011;40916;51.632;5.552;2023-03-23T19:48:56;2.9;;;7.8;;
55013;SDS011;40916;51.632;5.552;2023-03-23T19:53:56;3.3;;;9.6;;
55013;SDS011;40916;51.632;5.552;2023-03-23T19:58:56;2.8;;;11.5;;
55013;SDS011;40916;51.632;5.552;2023-03-23T20:03:56;3.1;;;10.7;;
55013;SDS011;40916;51.632;5.552;2023-03-23T20:08:56;2.7;;;11.5;;
55013;SDS011;40916;51.632;5.552;2023-03-23T20:13:56;3.3;;;16;;
55013;SDS011;40916;51.632;5.552;2023-03-23T20:18:56;2.9;;;12.1;;
55013;SDS011;40916;51.632;5.552;2023-03-23T20:23:58;3.9;;;12.2;;
55013;SDS011;40916;51.632;5.552;2023-03-23T20:29:01;3.9;;;10.9;;
55013;SDS011;40916;51.632;5.552;2023-03-23T20:34:03;4.1;;;16.2;;
55013;SDS011;40916;51.632;5.552;2023-03-23T20:39:02;4.4;;;14.6;;
55013;SDS011;40916;51.632;5.552;2023-03-23T20:44:02;3.7;;;9.7;;
55013;SDS011;40916;51.632;5.552;2023-03-23T20:49:02;3.4;;;9.2;;
55013;SDS011;40916;51.632;5.552;2023-03-23T20:54:02;2.7;;;8.6;;
55013;SDS011;40916;51.632;5.552;2023-03-23T20:59:02;4.5;;;14.6;;
55013;SDS011;40916;51.632;5.552;2023-03-23T21:04:02;3.6;;;16.6;;
55013;SDS011;40916;51.632;5.552;2023-03-23T21:09:02;4.5;;;12.9;;
55013;SDS011;40916;51.632;5.552;2023-03-23T21:14:02;3;;;6.8;;
55013;SDS011;40916;51.632;5.552;2023-03-23T21:19:03;3.2;;;8.5;;
55013;SDS011;40916;51.632;5.552;2023-03-23T21:24:04;2.8;;;8.8;;
55013;SDS011;40916;51.632;5.552;2023-03-23T21:29:06;3.4;;;11.5;;
55013;SDS011;40916;51.632;5.552;2023-03-23T21:34:09;2.4;;;7.1;;
55013;SDS011;40916;51.632;5.552;2023-03-23T21:39:11;2.6;;;7.8;;
55013;SDS011;40916;51.632;5.552;2023-03-23T21:44:12;4;;;11;;
55013;SDS011;40916;51.632;5.552;2023-03-23T21:49:12;2.8;;;8.1;;
55013;SDS011;40916;51.632;5.552;2023-03-23T21:54:12;2.9;;;8.4;;
55013;SDS011;40916;51.632;5.552;2023-03-23T21:59:12;2.6;;;8.1;;
55013;SDS011;40916;51.632;5.552;2023-03-23T22:04:12;3;;;8.3;;
55013;SDS011;40916;51.632;5.552;2023-03-23T22:09:12;2.6;;;6;;
55013;SDS011;40916;51.632;5.552;2023-03-23T22:14:12;1.9;;;5.6;;
55013;SDS011;40916;51.632;5.552;2023-03-23T22:19:12;2.4;;;9.4;;
55013;SDS011;40916;51.632;5.552;2023-03-23T22:24:12;2.3;;;5.2;;
55013;SDS011;40916;51.632;5.552;2023-03-23T22:29:12;2.3;;;10;;
55013;SDS011;40916;51.632;5.552;2023-03-23T22:34:12;2.5;;;6.7;;
55013;SDS011;40916;51.632;5.552;2023-03-23T22:39:12;2.2;;;9;;
55013;SDS011;40916;51.632;5.552;2023-03-23T22:44:13;2.4;;;7.7;;
55013;SDS011;40916;51.632;5.552;2023-03-23T22:49:12;2.4;;;7.8;;
55013;SDS011;40916;51.632;5.552;2023-03-23T22:54:12;2.3;;;6.3;;
55013;SDS011;40916;51.632;5.552;2023-03-23T22:59:12;2.7;;;8.3;;
55013;SDS011;40916;51.632;5.552;2023-03-23T23:04:12;2.5;;;7.7;;
55013;SDS011;40916;51.632;5.552;2023-03-23T23:09:12;2.1;;;6.7;;
55013;SDS011;40916;51.632;5.552;2023-03-23T23:14:12;2.2;;;7.1;;
55013;SDS011;40916;51.632;5.552;2023-03-23T23:19:12;2.2;;;6.2;;
55013;SDS011;40916;51.632;5.552;2023-03-23T23:24:12;2.1;;;7.9;;
55013;SDS011;40916;51.632;5.552;2023-03-23T23:29:12;1.5;;;4.2;;
55013;SDS011;40916;51.632;5.552;2023-03-23T23:34:12;2.3;;;7.5;;
55013;SDS011;40916;51.632;5.552;2023-03-23T23:39:12;2.1;;;6;;
55013;SDS011;40916;51.632;5.552;2023-03-23T23:44:12;3.6;;;10.9;;
55013;SDS011;40916;51.632;5.552;2023-03-23T23:49:12;1.6;;;3.4;;
55013;SDS011;40916;51.632;5.552;2023-03-23T23:54:12;2.1;;;4.6;;
55013;SDS011;40916;51.632;5.552;2023-03-23T23:59:12;2.1;;;4.6;;
